sensor_id;sensor_type;location;lat;lon;timestamp;pressure;altitude;pressure_sealevel;temperature;humidity
80202;BME280;69521;54.454;9.928;2023-06-10T05:58:37;101977.84;;;14.14;70.43
80202;BME280;69521;54.454;9.928;2023-06-10T06:01:02;101960.84;;;14.02;70.22
80202;BME280;69521;54.454;9.928;2023-06-10T06:03:30;101998.44;;;14.35;70.76
80202;BME280;69521;54.454;9.928;2023-06-10T06:05:56;101993.72;;;14.38;70.70
80202;BME280;69521;54.454;9.928;2023-06-10T06:08:25;101959.66;;;14.25;70.59
80202;BME280;69521;54.454;9.928;2023-06-10T06:10:50;101955.25;;;14.34;69.89
80202;BME280;69521;54.454;9.928;2023-06-10T06:13:25;101975.84;;;14.46;70.28
80202;BME280;69521;54.454;9.928;2023-06-10T06:16:15;101949.72;;;14.35;69.67
80202;BME280;69521;54.454;9.928;2023-06-10T06:19:14;101962.31;;;14.46;70.53
80202;BME280;69521;54.454;9.928;2023-06-10T06:22:04;101997.03;;;14.81;69.53
80202;BME280;69521;54.454;9.928;2023-06-10T06:24:49;101962.06;;;14.59;69.46
80202;BME280;69521;54.454;9.928;2023-06-10T06:27:28;101939.81;;;14.55;69.15
80202;BME280;69521;54.454;9.928;2023-06-10T06:29:56;101969.47;;;14.66;69.44
80202;BME280;69521;54.454;9.928;2023-06-10T06:32:21;101987.22;;;14.80;70.06
80202;BME280;69521;54.454;9.928;2023-06-10T06:35:02;101955.63;;;14.60;69.46
80202;BME280;69521;54.454;9.928;2023-06-10T06:37:35;101983.50;;;14.81;69.47
80202;BME280;69521;54.454;9.928;2023-06-10T06:40:06;101983.38;;;14.92;68.86
80202;BME280;69521;54.454;9.928;2023-06-10T06:42:43;101934.75;;;14.81;68.47
80202;BME280;69521;54.454;9.928;2023-06-10T06:45:11;101969.53;;;15.05;68.22
80202;BME280;69521;54.454;9.928;2023-06-10T06:47:36;101966.13;;;15.22;67.95
80202;BME280;69521;54.454;9.928;2023-06-10T06:50:38;102003.19;;;15.41;68.26
80202;BME280;69521;54.454;9.928;2023-06-10T06:53:14;101979.25;;;15.27;67.89
80202;BME280;69521;54.454;9.928;2023-06-10T06:55:40;101982.81;;;15.18;66.96
80202;BME280;69521;54.454;9.928;2023-06-10T06:58:20;101960.72;;;15.13;67.43
80202;BME280;69521;54.454;9.928;2023-06-10T07:01:24;101961.53;;;15.33;67.99
80202;BME280;69521;54.454;9.928;2023-06-10T07:04:16;101985.34;;;15.48;67.08
80202;BME280;69521;54.454;9.928;2023-06-10T07:06:54;101985.63;;;15.55;66.78
80202;BME280;69521;54.454;9.928;2023-06-10T07:09:54;101984.97;;;15.63;67.91
80202;BME280;69521;54.454;9.928;2023-06-10T07:12:38;101963.66;;;15.48;67.14
80202;BME280;69521;54.454;9.928;2023-06-10T07:20:59;101973.25;;;15.72;66.55
80202;BME280;69521;54.454;9.928;2023-06-10T07:27:08;101984.78;;;15.83;66.04
80202;BME280;69521;54.454;9.928;2023-06-10T07:29:39;102040.38;;;16.16;67.00
80202;BME280;69521;54.454;9.928;2023-06-10T07:32:13;102000.03;;;15.94;67.19
80202;BME280;69521;54.454;9.928;2023-06-10T07:34:52;102053.88;;;16.36;66.60
80202;BME280;69521;54.454;9.928;2023-06-10T11:00:22;102021.09;;;22.82;46.67
80202;BME280;69521;54.454;9.928;2023-06-10T13:07:04;101990.44;;;23.79;46.16
80202;BME280;69521;54.454;9.928;2023-06-10T13:09:40;102022.88;;;24.25;46.48
80202;BME280;69521;54.454;9.928;2023-06-10T13:13:07;102032.97;;;24.18;47.04
80202;BME280;69521;54.454;9.928;2023-06-10T13:20:00;101989.31;;;24.01;45.86
80202;BME280;69521;54.454;9.928;2023-06-10T13:27:12;101972.81;;;23.67;46.17
80202;BME280;69521;54.454;9.928;2023-06-10T16:09:26;101964.69;;;20.93;52.02
80202;BME280;69521;54.454;9.928;2023-06-10T16:24:13;101925.91;;;20.28;50.67
80202;BME280;69521;54.454;9.928;2023-06-10T16:30:14;101964.31;;;20.26;50.78
80202;BME280;69521;54.454;9.928;2023-06-10T17:10:35;101920.09;;;18.94;48.73
80202;BME280;69521;54.454;9.928;2023-06-10T17:13:13;101938.50;;;19.00;48.57
80202;BME280;69521;54.454;9.928;2023-06-10T17:15:41;101933.88;;;18.85;48.36
80202;BME280;69521;54.454;9.928;2023-06-10T17:18:29;101929.78;;;18.72;47.56
80202;BME280;69521;54.454;9.928;2023-06-10T17:21:26;101906.03;;;18.57;47.51
80202;BME280;69521;54.454;9.928;2023-06-10T17:48:55;101984.31;;;18.12;48.96
80202;BME280;69521;54.454;9.928;2023-06-10T20:28:58;102114.63;;;14.48;59.29
80202;BME280;69521;54.454;9.928;2023-06-10T20:32:38;102122.81;;;14.58;59.73
80202;BME280;69521;54.454;9.928;2023-06-10T20:38:54;102078.22;;;14.11;60.62
80202;BME280;69521;54.454;9.928;2023-06-10T20:45:20;102094.31;;;14.12;61.01
80202;BME280;69521;54.454;9.928;2023-06-10T20:51:37;102120.84;;;14.18;61.07
80202;BME280;69521;54.454;9.928;2023-06-10T21:00:42;102150.28;;;14.32;62.10
80202;BME280;69521;54.454;9.928;2023-06-10T21:03:23;102089.03;;;13.90;62.25
80202;BME280;69521;54.454;9.928;2023-06-10T21:06:01;102126.91;;;14.11;62.40
80202;BME280;69521;54.454;9.928;2023-06-10T21:08:39;102091.38;;;13.83;62.49
80202;BME280;69521;54.454;9.928;2023-06-10T21:13:58;102092.38;;;13.82;62.54
80202;BME280;69521;54.454;9.928;2023-06-10T21:16:24;102144.59;;;14.15;62.53
80202;BME280;69521;54.454;9.928;2023-06-10T21:19:33;102093.50;;;13.80;62.76
80202;BME280;69521;54.454;9.928;2023-06-10T21:22:14;102118.66;;;13.91;63.03
80202;BME280;69521;54.454;9.928;2023-06-10T22:11:49;102154.97;;;13.78;65.22
